Terminal Aerodrome Forecast
Issued by NWS Cleveland, OH

Home | Current Version | Previous Version | Text Only | Print | Product List | Glossary On
Versions: 1 2 3 4 5 6 7 8 9 10 11 12 13 14 15 16 17 18
749
FTUS41 KCLE 081723
TAFERI
TAF
KERI 081723Z 0818/0918 16012KT P6SM SCT050 OVC100
     FM082000 16008KT 6SM -RA SCT015 OVC025
     FM090000 18006KT 4SM -RASN BR OVC015
     FM090300 21006KT 4SM BR SCT006 OVC012
     FM090800 23009KT 3SM -SN BR OVC006
     FM091500 24009KT 5SM -SHSN OVC012=

USA.gov is the U.S. government's official web portal to all federal, state and local government web resources and services.